Weather at Angus Downs Airport

Public forecast

Using degrees Celsius for public forecast. Weather courtesy of forecast.io.

Closest aviation weather report (METAR) to Angus Downs Airport

Closest report is Ayers Rock Connellan Airport, 71.2 nm (131.9 km) W. Retrieved 2021/06/25 04:00 UTC (15 minutes ago):

YAYE 250400Z AUTO 14007KT 090V180 9999 // NCD 14/01 Q1024

Closest aviation forecast (TAF) to Angus Downs Airport

Closest forecast is Alice Springs Airport, 115.5 nm (213.8 km) NE. Retrieved 2021-06-25 00:00 UTC (4 hours ago):

TAF YBAS 242303Z 2500/2600 16010KT 9999 FEW045 FM250830 16006KT 9999 FEW050 FM251500 27005KT 9999 SCT040